Reno, NV

8:12 PM PDT on August 24, 2016 (GMT -0700)
Hidden Lake | | Change Station

Elev 4652 ft 39.37 °N, 119.75 °W | Updated 9 minutes ago

Partly Cloudy
Partly Cloudy
74.8 °F
Feels Like 76 °F
N
6.8
Wind Variable Wind from SW

Today
High -- | Low -- °F
--% Chance of Precip.
Yesterday
High -- | Low -- °F
Precip. -- in
Pressure 29.94 in
Visibility 10.0 miles
Clouds Few 10000 ft
Heat Index 76 °F
Dew Point 30 °F
Humidity 19%
Rainfall 0.00 in
Snow Depth Not available.
6:20 AM 7:41 PM
Waning Gibbous, 50% visible
METAR KRNO 250255Z 28014G21KT 10SM FEW100 27/M05 A3009 RMK AO2 SLP138 T02671050 53003
Pressure 29.94 in
Visibility 10.0 miles
Clouds Few 10000 ft
Heat Index 76 °F
Dew Point 30 °F
Humidity 19%
Rainfall 0.00 in
Snow Depth Not available.
6:20 AM 7:41 PM
Waning Gibbous, 50% visible
METAR KRNO 250255Z 28014G21KT 10SM FEW100 27/M05 A3009 RMK AO2 SLP138 T02671050 53003

10-Day Weather Forecast

Almanac

Astronomy

Aug. 24, 2016 Rise Set
Actual Time
Civil Twilight
Nautical Twilight
Astronomical Twilight
Moon
Length of Visible Light
Length of Day
Tomorrow will be .
, % of the Moon is Illuminated

Today's Extremes

State Highs State Lows

Community

WunderPhotos

Upload Photos

1,934,787 photos uploaded!

WunderBlog® & News

Nearby

Air Quality

  Air Quality AQ Index Pollutant
Not available.

Snow Depth

Station Depth Elevation

Earthquake Activity

City Distance Mag. Time & Date
Minimum magnitude displayed is 2.5.

Coastal Water Temperatures

Place Temperature

Stations

Nearby Weather Stations

Station Location Temp. Windchill Dew Point Humidity Wind Precip. Elev Updated Type
                   

Watches & Warnings

There are currently no watches in effect.